Time;durP1;ratioP1;P1;durP2;ratioP2;P2;SDS_P1;SDS_P2;PMS_P1;PMS_P2;Temp;Humidity;BMP_temperature;BMP_pressure;BME280_temperature;BME280_humidity;BME280_pressure;Samples;Min_cycle;Max_cycle;Signal;HPM_P1;HPM_P2
2021/01/23 00:02:18;;;;;;;;;;;5.00;99.90;;;;;;4909382;29;19923;-79
2021/01/23 00:04:48;;;;;;;;;;;5.00;99.90;;;;;;4923191;29;19923;-80
2021/01/23 00:07:15;;;;;;;;;;;4.90;99.90;;;;;;4910250;29;19934;-79
2021/01/23 00:09:42;;;;;;;;;;;4.90;99.90;;;;;;4910560;29;19923;-79
2021/01/23 00:12:13;;;;;;;;;;;4.90;99.90;;;;;;4898121;29;19922;-80
2021/01/23 00:14:40;;;;;;;;;;;4.90;99.90;;;;;;4914199;29;19927;-80
2021/01/23 00:17:10;;;;;;;;;;;4.90;99.90;;;;;;4927846;29;19926;-78
2021/01/23 00:19:51;;;;;;;;;;;4.90;99.90;;;;;;4927593;29;19929;-81
2021/01/23 00:22:25;;;;;;;;;;;4.80;99.90;;;;;;4898080;29;19930;-80
2021/01/23 00:24:55;;;;;;;;;;;4.80;99.90;;;;;;4912723;29;19933;-79
2021/01/23 00:27:22;;;;;;;;;;;4.80;99.90;;;;;;4896794;29;19934;-78
2021/01/23 00:29:49;;;;;;;;;;;4.80;99.90;;;;;;4913260;29;19923;-80
2021/01/23 00:32:18;;;;;;;;;;;4.80;99.90;;;;;;4911927;29;19934;-78
2021/01/23 00:34:48;;;;;;;;;;;4.90;99.90;;;;;;4911192;29;19923;-80
2021/01/23 00:37:19;;;;;;;;;;;4.90;99.90;;;;;;4895298;29;19923;-80
2021/01/23 00:39:49;;;;;;;;;;;4.90;99.90;;;;;;4909672;29;19923;-80
2021/01/23 00:42:16;;;;;;;;;;;4.90;99.90;;;;;;4908839;29;19923;-79
2021/01/23 00:44:49;;;;;;;;;;;4.90;99.90;;;;;;4894894;29;20357;-79
2021/01/23 00:47:18;;;;;;;;;;;4.90;99.90;;;;;;4925705;29;19934;-80
2021/01/23 00:49:46;;;;;;;;;;;4.90;99.90;;;;;;4909884;29;19930;-79
2021/01/23 00:52:13;;;;;;;;;;;4.90;99.90;;;;;;4909535;29;20353;-80
2021/01/23 00:54:44;;;;;;;;;;;4.80;99.90;;;;;;4926040;29;19923;-80
2021/01/23 00:57:12;;;;;;;;;;;4.80;99.90;;;;;;4926019;29;19923;-79
2021/01/23 00:59:39;;;;;;;;;;;4.90;99.90;;;;;;4925766;29;19930;-79
2021/01/23 01:02:07;;;;;;;;;;;4.80;99.90;;;;;;4910499;29;19923;-78
2021/01/23 01:04:42;;;;;;;;;;;4.90;99.90;;;;;;4898578;29;20383;-79
2021/01/23 01:07:12;;;;;;;;;;;4.80;99.90;;;;;;4930346;29;19945;-81
2021/01/23 01:09:51;;;;;;;;;;;4.80;99.90;;;;;;4915522;29;19923;-79
2021/01/23 01:12:19;;;;;;;;;;;4.90;99.90;;;;;;4932957;29;19923;-79
2021/01/23 01:14:51;;;;;;;;;;;4.90;99.90;;;;;;4931921;29;19923;-80
2021/01/23 01:17:20;;;;;;;;;;;4.90;99.90;;;;;;4913782;29;19923;-79
2021/01/23 01:19:49;;;;;;;;;;;4.80;99.90;;;;;;4897804;29;19923;-79
2021/01/23 01:22:16;;;;;;;;;;;4.80;99.90;;;;;;4925365;29;20242;-79
2021/01/23 01:24:45;;;;;;;;;;;4.80;99.90;;;;;;4924064;29;19923;-79
2021/01/23 01:27:13;;;;;;;;;;;4.80;99.90;;;;;;4922667;29;19922;-79
2021/01/23 01:29:41;;;;;;;;;;;4.70;99.90;;;;;;4906535;29;19927;-78
2021/01/23 01:32:10;;;;;;;;;;;4.70;99.90;;;;;;4923419;29;19934;-79
2021/01/23 01:34:37;;;;;;;;;;;4.80;99.90;;;;;;4922754;29;19934;-78
2021/01/23 01:37:05;;;;;;;;;;;4.80;99.90;;;;;;4908522;29;19923;-79
2021/01/23 01:39:34;;;;;;;;;;;4.70;99.90;;;;;;4909359;29;19934;-79
2021/01/23 01:42:01;;;;;;;;;;;4.70;99.90;;;;;;4910462;29;19927;-79
2021/01/23 01:44:29;;;;;;;;;;;4.70;99.90;;;;;;4910911;29;19923;-80
2021/01/23 01:46:58;;;;;;;;;;;4.70;99.90;;;;;;4910879;29;19927;-79
2021/01/23 01:49:28;;;;;;;;;;;4.70;99.90;;;;;;4926726;29;19922;-79
2021/01/23 01:52:10;;;;;;;;;;;4.70;99.90;;;;;;4910299;29;19923;-79
2021/01/23 01:54:40;;;;;;;;;;;4.70;99.90;;;;;;4908480;29;20354;-79
2021/01/23 01:57:09;;;;;;;;;;;4.70;99.90;;;;;;4923169;29;20354;-79
2021/01/23 01:59:52;;;;;;;;;;;4.60;99.90;;;;;;4909046;29;20277;-80
2021/01/23 02:02:26;;;;;;;;;;;4.70;99.90;;;;;;4912954;29;19922;-79
2021/01/23 02:04:57;;;;;;;;;;;4.70;99.90;;;;;;4910744;29;19934;-79
2021/01/23 02:07:28;;;;;;;;;;;4.70;99.90;;;;;;4923632;29;19923;-79
2021/01/23 02:10:16;;;;;;;;;;;4.70;99.90;;;;;;4908590;29;19923;-79
2021/01/23 02:12:54;;;;;;;;;;;4.70;99.90;;;;;;4905211;29;20020;-79
2021/01/23 02:15:24;;;;;;;;;;;4.70;99.90;;;;;;4924453;29;19927;-79
2021/01/23 02:17:53;;;;;;;;;;;4.80;99.90;;;;;;4920410;29;19928;-78
2021/01/23 02:20:29;;;;;;;;;;;4.80;99.90;;;;;;4920593;29;19934;-78
2021/01/23 02:23:09;;;;;;;;;;;4.80;99.90;;;;;;4888770;29;19934;-79
2021/01/23 02:25:58;;;;;;;;;;;4.80;99.90;;;;;;4920222;29;19930;-79
2021/01/23 02:28:46;;;;;;;;;;;4.70;99.90;;;;;;4904519;29;19930;-79
2021/01/23 02:31:19;;;;;;;;;;;4.70;99.90;;;;;;4876053;29;19929;-78
2021/01/23 02:33:52;;;;;;;;;;;4.70;99.90;;;;;;4889662;29;19922;-79
2021/01/23 02:36:22;;;;;;;;;;;4.70;99.90;;;;;;4889138;29;19953;-79
2021/01/23 02:38:50;;;;;;;;;;;4.70;99.90;;;;;;4904091;29;19923;-78
2021/01/23 02:41:18;;;;;;;;;;;4.70;99.90;;;;;;4919569;29;19923;-79
2021/01/23 02:43:48;;;;;;;;;;;4.70;99.90;;;;;;4888619;29;20342;-79
2021/01/23 02:46:15;;;;;;;;;;;4.70;99.90;;;;;;4920437;29;19923;-78
2021/01/23 02:48:44;;;;;;;;;;;4.70;99.90;;;;;;4872765;29;19964;-79
2021/01/23 02:51:13;;;;;;;;;;;4.70;99.90;;;;;;4903961;29;19923;-79
2021/01/23 02:53:40;;;;;;;;;;;4.70;99.90;;;;;;4920817;29;19934;-79
2021/01/23 02:56:14;;;;;;;;;;;4.80;99.90;;;;;;4888590;29;20345;-80
2021/01/23 02:58:44;;;;;;;;;;;4.80;99.90;;;;;;4903645;29;20357;-78
2021/01/23 03:01:14;;;;;;;;;;;4.80;99.90;;;;;;4904152;29;19945;-79
2021/01/23 03:03:43;;;;;;;;;;;4.80;99.90;;;;;;4919752;29;19927;-79
2021/01/23 03:06:13;;;;;;;;;;;4.80;99.90;;;;;;4920578;29;19930;-78
2021/01/23 03:08:43;;;;;;;;;;;4.90;99.90;;;;;;4904522;29;19923;-78
2021/01/23 03:11:10;;;;;;;;;;;4.90;99.90;;;;;;4920567;29;19946;-79
2021/01/23 03:13:37;;;;;;;;;;;4.80;99.90;;;;;;4889570;29;19934;-78
2021/01/23 03:16:04;;;;;;;;;;;4.80;99.90;;;;;;4905147;29;19934;-78
2021/01/23 03:18:34;;;;;;;;;;;4.80;99.90;;;;;;4920710;29;20265;-79
2021/01/23 03:21:01;;;;;;;;;;;4.90;99.90;;;;;;4901518;29;19924;-79
2021/01/23 03:23:29;;;;;;;;;;;4.90;99.90;;;;;;4885994;29;19923;-78
2021/01/23 03:25:56;;;;;;;;;;;4.90;99.90;;;;;;4901889;29;20385;-79
2021/01/23 03:28:25;;;;;;;;;;;4.90;99.90;;;;;;4901915;29;20305;-79
2021/01/23 03:30:53;;;;;;;;;;;4.90;99.90;;;;;;4886706;29;19934;-78
2021/01/23 03:33:20;;;;;;;;;;;5.00;99.90;;;;;;4902977;29;19934;-78
2021/01/23 03:35:49;;;;;;;;;;;5.00;99.90;;;;;;4887067;29;20021;-78
2021/01/23 03:38:16;;;;;;;;;;;5.00;99.90;;;;;;4887887;29;19934;-79
2021/01/23 03:40:44;;;;;;;;;;;5.00;99.90;;;;;;4906805;29;19934;-79
2021/01/23 03:43:11;;;;;;;;;;;5.10;99.90;;;;;;4906771;29;19938;-79
2021/01/23 03:45:41;;;;;;;;;;;5.10;99.90;;;;;;4905316;29;20266;-78
2021/01/23 03:48:09;;;;;;;;;;;5.10;99.90;;;;;;4906184;29;19923;-79
2021/01/23 03:50:36;;;;;;;;;;;5.00;99.90;;;;;;4906298;29;19923;-79
2021/01/23 03:53:07;;;;;;;;;;;5.00;99.90;;;;;;4907349;29;19931;-79
2021/01/23 03:55:34;;;;;;;;;;;5.00;99.90;;;;;;4906825;29;19934;-78
2021/01/23 03:58:03;;;;;;;;;;;5.00;99.90;;;;;;4895064;29;19927;-80
2021/01/23 04:00:33;;;;;;;;;;;5.00;99.90;;;;;;4914807;29;19934;-80
2021/01/23 04:03:04;;;;;;;;;;;5.00;99.90;;;;;;4896852;29;19923;-80
2021/01/23 04:05:31;;;;;;;;;;;5.00;99.90;;;;;;4916247;29;19927;-79
2021/01/23 04:07:58;;;;;;;;;;;5.10;99.90;;;;;;4914986;29;20285;-78
2021/01/23 04:10:28;;;;;;;;;;;5.10;99.90;;;;;;4917053;29;19924;-79
2021/01/23 04:12:55;;;;;;;;;;;5.00;99.90;;;;;;4900235;29;19923;-80
2021/01/23 04:15:26;;;;;;;;;;;5.00;99.90;;;;;;4916065;29;19933;-78
2021/01/23 04:17:53;;;;;;;;;;;5.00;99.90;;;;;;4917064;29;19934;-79
2021/01/23 04:20:20;;;;;;;;;;;5.00;99.90;;;;;;4917667;29;19934;-79
2021/01/23 04:22:48;;;;;;;;;;;5.00;99.90;;;;;;4904545;29;19923;-79
2021/01/23 04:25:17;;;;;;;;;;;5.00;99.90;;;;;;4935539;29;19923;-78
2021/01/23 04:27:44;;;;;;;;;;;5.00;99.90;;;;;;4921082;29;19923;-79
2021/01/23 04:30:14;;;;;;;;;;;5.00;99.90;;;;;;4921249;29;19923;-80
2021/01/23 04:32:42;;;;;;;;;;;5.00;99.90;;;;;;4920560;29;19923;-80
2021/01/23 04:35:10;;;;;;;;;;;5.10;99.90;;;;;;4935990;29;19923;-78
2021/01/23 04:37:38;;;;;;;;;;;5.00;99.90;;;;;;4921602;29;19923;-79
2021/01/23 04:40:06;;;;;;;;;;;5.00;99.90;;;;;;4922293;29;19923;-79
2021/01/23 04:42:33;;;;;;;;;;;5.00;99.90;;;;;;4921981;29;19933;-80
2021/01/23 04:45:00;;;;;;;;;;;5.10;99.90;;;;;;4922481;29;19923;-81
2021/01/23 04:47:27;;;;;;;;;;;5.10;99.90;;;;;;4907182;29;19923;-79
2021/01/23 04:49:58;;;;;;;;;;;5.00;99.90;;;;;;4920550;29;19927;-77
2021/01/23 04:52:25;;;;;;;;;;;5.00;99.90;;;;;;4905056;29;19933;-80
2021/01/23 04:54:56;;;;;;;;;;;5.00;99.90;;;;;;4919385;29;19934;-79
2021/01/23 04:57:23;;;;;;;;;;;5.00;99.90;;;;;;4918211;29;19927;-79
2021/01/23 04:59:52;;;;;;;;;;;5.00;99.90;;;;;;4934994;29;19933;-80
2021/01/23 05:02:20;;;;;;;;;;;4.90;99.90;;;;;;4935316;29;20288;-79
2021/01/23 05:04:52;;;;;;;;;;;4.90;99.90;;;;;;4935140;29;19922;-80
2021/01/23 05:07:27;;;;;;;;;;;5.00;99.90;;;;;;4918073;29;19933;-79
2021/01/23 05:09:54;;;;;;;;;;;4.80;99.90;;;;;;4916505;29;19923;-80
2021/01/23 05:12:32;;;;;;;;;;;4.80;99.90;;;;;;4915404;29;19922;-79
2021/01/23 05:14:59;;;;;;;;;;;4.80;99.90;;;;;;4914203;29;19923;-79
2021/01/23 05:17:29;;;;;;;;;;;4.70;99.90;;;;;;4912212;29;19934;-79
2021/01/23 05:19:57;;;;;;;;;;;4.70;99.90;;;;;;4929639;29;19934;-79
2021/01/23 05:22:24;;;;;;;;;;;4.70;99.90;;;;;;4927782;29;19923;-79
2021/01/23 05:24:52;;;;;;;;;;;4.70;99.90;;;;;;4911716;29;19930;-80
2021/01/23 05:27:19;;;;;;;;;;;4.70;99.90;;;;;;4930113;29;19934;-79
2021/01/23 05:29:57;;;;;;;;;;;4.60;99.90;;;;;;4913581;29;20518;-79
2021/01/23 05:32:24;;;;;;;;;;;4.50;99.90;;;;;;4913861;29;19923;-79
2021/01/23 05:34:52;;;;;;;;;;;4.50;99.90;;;;;;4911348;29;19923;-79
2021/01/23 05:37:32;;;;;;;;;;;4.50;99.90;;;;;;4909787;29;19933;-80
2021/01/23 05:40:03;;;;;;;;;;;4.40;99.90;;;;;;4899491;29;19923;-78
2021/01/23 05:42:32;;;;;;;;;;;4.40;99.90;;;;;;4901262;29;19923;-80
2021/01/23 05:45:12;;;;;;;;;;;4.20;99.90;;;;;;4931982;29;19933;-80
2021/01/23 05:47:39;;;;;;;;;;;4.10;99.90;;;;;;4912972;29;19934;-78
2021/01/23 05:50:07;;;;;;;;;;;4.10;99.90;;;;;;4927093;29;20341;-78
2021/01/23 05:52:34;;;;;;;;;;;4.10;99.90;;;;;;4909760;29;19923;-80
2021/01/23 05:55:06;;;;;;;;;;;3.90;99.90;;;;;;4894299;29;19922;-80
2021/01/23 05:57:33;;;;;;;;;;;3.80;99.90;;;;;;4899602;29;20380;-78
2021/01/23 06:00:00;;;;;;;;;;;3.70;99.90;;;;;;4914709;29;19923;-79
2021/01/23 06:02:30;;;;;;;;;;;3.70;99.90;;;;;;4910403;29;19934;-78
2021/01/23 06:04:57;;;;;;;;;;;3.60;99.90;;;;;;4904043;29;19923;-78
2021/01/23 06:07:43;;;;;;;;;;;3.50;99.90;;;;;;4921289;29;19923;-78
2021/01/23 06:10:31;;;;;;;;;;;3.40;99.90;;;;;;4907529;29;19926;-79
2021/01/23 06:12:59;;;;;;;;;;;3.30;99.90;;;;;;4907985;29;19923;-79
2021/01/23 06:15:33;;;;;;;;;;;3.30;99.90;;;;;;4908105;29;19924;-79
2021/01/23 06:18:03;;;;;;;;;;;3.20;99.90;;;;;;4923395;29;19946;-78
2021/01/23 06:20:48;;;;;;;;;;;3.20;99.90;;;;;;4907139;29;20349;-79
2021/01/23 06:23:20;;;;;;;;;;;3.20;99.90;;;;;;4923996;29;19938;-78
2021/01/23 06:25:58;;;;;;;;;;;3.10;99.90;;;;;;4922519;29;19934;-78
2021/01/23 06:28:46;;;;;;;;;;;3.10;99.90;;;;;;4922617;29;19930;-78
2021/01/23 06:31:27;;;;;;;;;;;3.00;99.90;;;;;;4907363;29;19926;-79
2021/01/23 06:33:54;;;;;;;;;;;3.00;99.90;;;;;;4923736;29;19934;-79
2021/01/23 06:36:22;;;;;;;;;;;3.00;99.90;;;;;;4892412;29;19922;-79
2021/01/23 06:39:16;;;;;;;;;;;3.10;99.90;;;;;;4921991;29;19923;-79
2021/01/23 06:41:43;;;;;;;;;;;3.10;99.90;;;;;;4848966;29;20281;-79
2021/01/23 06:44:15;;;;;;;;;;;3.20;99.90;;;;;;4907040;29;19927;-79
2021/01/23 06:46:44;;;;;;;;;;;3.10;99.90;;;;;;4907345;29;20257;-78
2021/01/23 06:49:14;;;;;;;;;;;3.00;99.90;;;;;;4908248;29;19934;-79
2021/01/23 06:51:41;;;;;;;;;;;3.00;99.90;;;;;;4907234;29;19927;-78
2021/01/23 06:54:12;;;;;;;;;;;2.90;99.90;;;;;;4907089;29;19923;-78
2021/01/23 06:56:41;;;;;;;;;;;3.00;99.90;;;;;;4906233;29;19934;-79
2021/01/23 06:59:19;;;;;;;;;;;3.00;99.90;;;;;;4906872;29;20409;-80
2021/01/23 07:01:54;;;;;;;;;;;3.00;99.90;;;;;;4906887;29;19936;-79
2021/01/23 07:04:21;;;;;;;;;;;3.00;99.90;;;;;;4906179;29;20281;-78
2021/01/23 07:06:55;;;;;;;;;;;3.00;99.90;;;;;;4921532;29;19923;-78
2021/01/23 07:09:43;;;;;;;;;;;3.00;99.90;;;;;;4906608;29;19923;-78
2021/01/23 07:12:10;;;;;;;;;;;3.00;99.90;;;;;;4908900;29;19923;-79
2021/01/23 07:14:37;;;;;;;;;;;2.90;99.90;;;;;;4914983;29;19923;-78
2021/01/23 07:17:12;;;;;;;;;;;2.80;99.90;;;;;;4934049;29;19927;-80
2021/01/23 07:19:42;;;;;;;;;;;2.90;99.90;;;;;;4918440;29;19923;-77
2021/01/23 07:22:11;;;;;;;;;;;2.90;99.90;;;;;;4930954;29;19934;-79
2021/01/23 07:24:40;;;;;;;;;;;2.90;99.90;;;;;;4918536;29;19922;-79
2021/01/23 07:27:07;;;;;;;;;;;2.90;99.90;;;;;;4932722;29;19930;-80
2021/01/23 07:29:35;;;;;;;;;;;2.90;99.90;;;;;;4913457;29;19927;-78
2021/01/23 07:32:02;;;;;;;;;;;3.00;99.90;;;;;;4924408;29;19923;-79
2021/01/23 07:34:30;;;;;;;;;;;3.00;99.90;;;;;;4909017;29;20384;-79
2021/01/23 07:37:00;;;;;;;;;;;3.00;99.90;;;;;;4913811;29;19934;-80
2021/01/23 07:39:27;;;;;;;;;;;2.90;99.90;;;;;;4916512;29;19942;-79
2021/01/23 07:41:55;;;;;;;;;;;3.00;99.90;;;;;;4918519;29;20362;-79
2021/01/23 07:44:25;;;;;;;;;;;3.00;99.90;;;;;;4933173;29;19923;-79
2021/01/23 07:46:56;;;;;;;;;;;2.90;99.90;;;;;;4932129;29;19923;-80
2021/01/23 07:49:24;;;;;;;;;;;2.90;99.90;;;;;;4930964;29;19938;-78
2021/01/23 07:52:06;;;;;;;;;;;3.00;99.90;;;;;;4918010;29;19927;-80
2021/01/23 07:54:33;;;;;;;;;;;2.90;99.90;;;;;;4915210;29;19923;-78
2021/01/23 07:57:00;;;;;;;;;;;2.90;99.90;;;;;;4915055;29;19942;-79
2021/01/23 07:59:42;;;;;;;;;;;2.90;99.90;;;;;;4917586;29;19934;-79
2021/01/23 08:02:09;;;;;;;;;;;3.00;99.90;;;;;;4917973;29;20387;-78
2021/01/23 08:04:37;;;;;;;;;;;3.00;99.90;;;;;;4916954;29;20273;-79
2021/01/23 08:07:19;;;;;;;;;;;3.00;99.90;;;;;;4915413;29;20269;-80
2021/01/23 08:10:03;;;;;;;;;;;3.00;99.90;;;;;;4916327;29;19933;-78
2021/01/23 08:12:57;;;;;;;;;;;3.00;99.90;;;;;;4895655;29;19930;-78
2021/01/23 08:15:31;;;;;;;;;;;3.00;99.90;;;;;;4912543;29;19934;-78
2021/01/23 08:18:22;;;;;;;;;;;3.00;99.90;;;;;;4873211;29;19923;-78
2021/01/23 08:21:21;;;;;;;;;;;3.00;99.90;;;;;;4833929;29;19925;-80
2021/01/23 08:24:31;;;;;;;;;;;3.10;99.90;;;;;;4840373;29;19923;-79
2021/01/23 08:27:17;;;;;;;;;;;3.10;99.90;;;;;;4895773;29;19923;-78
2021/01/23 08:29:54;;;;;;;;;;;3.00;99.90;;;;;;4908311;29;19927;-79
2021/01/23 08:32:51;;;;;;;;;;;3.00;99.90;;;;;;4878218;29;19944;-78
2021/01/23 08:35:27;;;;;;;;;;;3.00;99.90;;;;;;4927248;29;20265;-79
2021/01/23 08:37:57;;;;;;;;;;;3.10;99.90;;;;;;4913104;29;19934;-79
2021/01/23 08:40:26;;;;;;;;;;;3.10;99.90;;;;;;4915722;29;19930;-79
2021/01/23 08:42:54;;;;;;;;;;;3.20;99.90;;;;;;4900181;29;20345;-79
2021/01/23 08:45:45;;;;;;;;;;;3.20;99.90;;;;;;4888831;29;19926;-80
2021/01/23 08:48:25;;;;;;;;;;;3.10;99.90;;;;;;4915929;29;19942;-79
2021/01/23 08:51:18;;;;;;;;;;;3.10;99.90;;;;;;4889295;29;19934;-79
2021/01/23 08:53:51;;;;;;;;;;;3.10;99.90;;;;;;4898515;29;19923;-79
2021/01/23 08:56:29;;;;;;;;;;;3.10;99.90;;;;;;4924857;29;19923;-79
2021/01/23 08:59:23;;;;;;;;;;;3.20;99.90;;;;;;4874711;29;19922;-79
2021/01/23 09:02:27;;;;;;;;;;;3.10;99.90;;;;;;4885218;29;19996;-78
2021/01/23 09:05:20;;;;;;;;;;;3.10;99.90;;;;;;4868841;29;19931;-79
2021/01/23 09:08:03;;;;;;;;;;;3.00;99.90;;;;;;4921325;29;19995;-78
2021/01/23 09:10:54;;;;;;;;;;;3.00;99.90;;;;;;4916780;29;20135;-79
2021/01/23 09:13:24;;;;;;;;;;;3.00;99.90;;;;;;4906818;29;19923;-79
2021/01/23 09:15:54;;;;;;;;;;;2.90;99.90;;;;;;4906056;29;19923;-78
2021/01/23 09:18:26;;;;;;;;;;;2.90;99.90;;;;;;4913721;29;19923;-78
2021/01/23 09:20:56;;;;;;;;;;;3.00;99.90;;;;;;4920053;29;20040;-79
2021/01/23 09:23:27;;;;;;;;;;;3.10;99.90;;;;;;4922613;29;20258;-79
2021/01/23 09:26:02;;;;;;;;;;;3.20;99.90;;;;;;4901664;29;19923;-79
2021/01/23 09:28:50;;;;;;;;;;;3.20;99.90;;;;;;4910699;29;19923;-78
2021/01/23 09:31:40;;;;;;;;;;;3.10;99.90;;;;;;4904666;29;20355;-79
2021/01/23 09:34:11;;;;;;;;;;;3.10;99.90;;;;;;4922180;29;19923;-80
2021/01/23 09:36:56;;;;;;;;;;;3.20;99.90;;;;;;4923107;29;19934;-80
2021/01/23 09:39:36;;;;;;;;;;;3.20;99.90;;;;;;4891472;29;19930;-79
2021/01/23 09:42:26;;;;;;;;;;;3.10;99.90;;;;;;4914770;29;20361;-79
2021/01/23 09:45:17;;;;;;;;;;;3.10;99.90;;;;;;4907903;29;19934;-79
2021/01/23 09:47:46;;;;;;;;;;;3.10;99.90;;;;;;4920659;29;20357;-78
2021/01/23 09:50:36;;;;;;;;;;;3.10;99.90;;;;;;4880099;29;19999;-79
2021/01/23 09:53:23;;;;;;;;;;;3.10;99.90;;;;;;4906085;29;19938;-79
2021/01/23 09:56:16;;;;;;;;;;;3.20;99.90;;;;;;4896324;29;19936;-80
2021/01/23 09:59:03;;;;;;;;;;;3.20;99.90;;;;;;4922797;29;19923;-79
2021/01/23 10:01:52;;;;;;;;;;;3.20;99.90;;;;;;4898421;29;19934;-79
2021/01/23 10:04:22;;;;;;;;;;;3.30;99.90;;;;;;4926029;29;19923;-80
2021/01/23 10:06:57;;;;;;;;;;;3.40;99.90;;;;;;4911798;29;19938;-80
2021/01/23 10:09:26;;;;;;;;;;;3.40;99.90;;;;;;4911158;29;19923;-80
2021/01/23 10:11:54;;;;;;;;;;;3.40;99.90;;;;;;4908242;29;19934;-80
2021/01/23 10:14:31;;;;;;;;;;;3.50;99.90;;;;;;4890196;29;20376;-80
2021/01/23 10:17:03;;;;;;;;;;;3.50;99.90;;;;;;4922030;29;19923;-80
2021/01/23 10:19:35;;;;;;;;;;;3.60;99.90;;;;;;4906206;29;19923;-81
2021/01/23 10:22:05;;;;;;;;;;;3.60;99.90;;;;;;4900657;29;19924;-79
2021/01/23 10:24:35;;;;;;;;;;;3.70;99.90;;;;;;4901649;29;19924;-79
2021/01/23 10:27:03;;;;;;;;;;;3.80;99.90;;;;;;4902316;29;19935;-79
2021/01/23 10:29:34;;;;;;;;;;;3.80;99.90;;;;;;4917555;29;19924;-78
2021/01/23 10:32:05;;;;;;;;;;;3.80;99.90;;;;;;4886524;29;20380;-79
2021/01/23 10:34:34;;;;;;;;;;;3.90;99.90;;;;;;4901410;29;19923;-79
2021/01/23 10:37:04;;;;;;;;;;;3.80;99.90;;;;;;4886709;29;19928;-80
2021/01/23 10:39:31;;;;;;;;;;;3.80;99.90;;;;;;4885712;29;19924;-79
2021/01/23 10:42:01;;;;;;;;;;;3.90;99.90;;;;;;4902575;29;19935;-79
2021/01/23 10:44:28;;;;;;;;;;;3.70;99.90;;;;;;4902123;29;20342;-80
2021/01/23 10:46:57;;;;;;;;;;;3.60;99.90;;;;;;4903238;29;19927;-80
2021/01/23 10:49:33;;;;;;;;;;;3.50;99.90;;;;;;4889462;29;19928;-80
2021/01/23 10:52:03;;;;;;;;;;;3.50;99.90;;;;;;4906997;29;19923;-79
2021/01/23 10:54:30;;;;;;;;;;;3.60;99.90;;;;;;4904734;29;19939;-79
2021/01/23 10:57:02;;;;;;;;;;;3.70;99.90;;;;;;4905380;29;19923;-79
2021/01/23 10:59:29;;;;;;;;;;;3.80;99.90;;;;;;4905654;29;19935;-80
2021/01/23 11:02:01;;;;;;;;;;;3.90;99.90;;;;;;4906797;29;19923;-80
2021/01/23 11:04:33;;;;;;;;;;;3.80;99.90;;;;;;4890398;29;19923;-80
2021/01/23 11:07:04;;;;;;;;;;;3.80;99.90;;;;;;4905829;29;19923;-80
2021/01/23 11:09:32;;;;;;;;;;;3.60;99.90;;;;;;4890331;29;19923;-79
2021/01/23 11:11:59;;;;;;;;;;;3.50;99.90;;;;;;4890695;29;19924;-78
2021/01/23 11:14:30;;;;;;;;;;;3.30;99.90;;;;;;4921601;29;19923;-81
2021/01/23 11:17:00;;;;;;;;;;;3.30;99.90;;;;;;4890170;29;19927;-80
2021/01/23 11:19:40;;;;;;;;;;;3.20;99.90;;;;;;4890148;29;19923;-80
2021/01/23 11:22:08;;;;;;;;;;;3.10;99.90;;;;;;4906256;29;19927;-80
2021/01/23 11:24:36;;;;;;;;;;;3.10;99.90;;;;;;4892650;29;19924;-80
2021/01/23 11:27:03;;;;;;;;;;;3.00;99.90;;;;;;4911279;29;19934;-81
2021/01/23 11:29:31;;;;;;;;;;;3.00;99.90;;;;;;4910874;29;20365;-80
2021/01/23 11:32:03;;;;;;;;;;;3.10;99.90;;;;;;4906420;29;19924;-80
2021/01/23 11:34:30;;;;;;;;;;;3.20;99.90;;;;;;4905817;29;19923;-81
2021/01/23 11:36:57;;;;;;;;;;;3.10;99.90;;;;;;4890193;29;19927;-80
2021/01/23 11:39:25;;;;;;;;;;;3.20;99.90;;;;;;4904552;29;19927;-79
2021/01/23 11:41:53;;;;;;;;;;;3.20;99.90;;;;;;4920573;29;19931;-80
2021/01/23 11:44:21;;;;;;;;;;;3.40;99.90;;;;;;4889544;29;19923;-81
2021/01/23 11:46:50;;;;;;;;;;;3.60;99.90;;;;;;4919945;29;19923;-80
2021/01/23 11:49:19;;;;;;;;;;;3.90;99.90;;;;;;4904757;29;20354;-80
2021/01/23 11:51:46;;;;;;;;;;;4.00;99.90;;;;;;4921056;29;19923;-79
2021/01/23 11:54:14;;;;;;;;;;;4.20;99.90;;;;;;4905047;29;19924;-81
2021/01/23 11:56:43;;;;;;;;;;;4.30;99.90;;;;;;4905092;29;19923;-79
2021/01/23 11:59:16;;;;;;;;;;;4.50;99.90;;;;;;4904080;29;20266;-79
2021/01/23 12:02:06;;;;;;;;;;;4.60;99.90;;;;;;4892388;29;19934;-80
2021/01/23 12:04:39;;;;;;;;;;;4.80;99.90;;;;;;4895235;29;19923;-80
2021/01/23 12:07:07;;;;;;;;;;;4.80;99.90;;;;;;4895231;29;19923;-80
2021/01/23 12:09:42;;;;;;;;;;;4.90;99.90;;;;;;4907046;29;20265;-79
2021/01/23 12:12:26;;;;;;;;;;;4.90;99.90;;;;;;4906629;29;19935;-79
2021/01/23 12:14:56;;;;;;;;;;;5.10;99.90;;;;;;4907311;29;19923;-80
2021/01/23 12:17:33;;;;;;;;;;;5.20;99.90;;;;;;4904538;29;19935;-80
2021/01/23 12:20:08;;;;;;;;;;;5.40;99.90;;;;;;4907156;29;20266;-82
2021/01/23 12:22:52;;;;;;;;;;;5.60;99.90;;;;;;4894893;29;19930;-80
2021/01/23 12:26:06;;;;;;;;;;;5.70;99.90;;;;;;4909941;29;19923;-81
2021/01/23 12:28:56;;;;;;;;;;;5.70;99.90;;;;;;4913384;29;19930;-81
2021/01/23 12:34:46;;;;;;;;;;;5.70;99.90;;;;;;4891031;29;19923;-80
2021/01/23 12:37:43;;;;;;;;;;;5.30;99.90;;;;;;4887952;29;19923;-81
2021/01/23 12:40:26;;;;;;;;;;;5.30;99.90;;;;;;4892033;29;19923;-81
2021/01/23 12:43:02;;;;;;;;;;;5.30;99.90;;;;;;4891391;29;19924;-80
2021/01/23 12:45:49;;;;;;;;;;;5.20;99.90;;;;;;4893473;29;19993;-80
2021/01/23 12:48:43;;;;;;;;;;;5.10;99.90;;;;;;4908945;29;19923;-80
2021/01/23 12:51:30;;;;;;;;;;;5.10;99.90;;;;;;4904614;29;20313;-79
2021/01/23 12:54:11;;;;;;;;;;;4.90;99.90;;;;;;4888693;29;19924;-80
2021/01/23 12:57:11;;;;;;;;;;;4.90;99.90;;;;;;4904287;29;19923;-80
2021/01/23 13:00:17;;;;;;;;;;;4.90;99.90;;;;;;4903890;29;19934;-80
2021/01/23 13:06:05;;;;;;;;;;;5.00;99.90;;;;;;4903024;29;19934;-79
2021/01/23 13:08:42;;;;;;;;;;;5.00;99.90;;;;;;4903701;29;19923;-79
2021/01/23 13:11:11;;;;;;;;;;;4.90;99.90;;;;;;4917830;29;19923;-79
2021/01/23 13:13:46;;;;;;;;;;;4.80;99.90;;;;;;4918025;29;19923;-79
2021/01/23 13:16:26;;;;;;;;;;;4.60;99.90;;;;;;4903677;29;19923;-79
2021/01/23 13:18:58;;;;;;;;;;;4.50;99.90;;;;;;4887089;29;19931;-79
2021/01/23 13:21:28;;;;;;;;;;;4.40;99.90;;;;;;4902487;29;19934;-79
2021/01/23 13:24:01;;;;;;;;;;;4.40;99.90;;;;;;4902759;29;19927;-81
2021/01/23 13:26:33;;;;;;;;;;;4.30;99.90;;;;;;4901307;29;19923;-82
2021/01/23 13:29:05;;;;;;;;;;;4.20;99.90;;;;;;4886273;29;19923;-80
2021/01/23 13:31:36;;;;;;;;;;;4.20;99.90;;;;;;4902729;29;19923;-79
2021/01/23 13:34:10;;;;;;;;;;;4.10;99.90;;;;;;4901750;29;19931;-79
2021/01/23 13:36:40;;;;;;;;;;;4.10;99.90;;;;;;4903298;29;19923;-79
2021/01/23 13:39:11;;;;;;;;;;;4.10;99.90;;;;;;4905277;29;19923;-77
2021/01/23 13:41:46;;;;;;;;;;;4.00;99.90;;;;;;4892207;29;19923;-80
2021/01/23 13:47:30;;;;;;;;;;;3.90;99.90;;;;;;4886632;29;19946;-78
2021/01/23 13:50:02;;;;;;;;;;;3.70;99.90;;;;;;4886861;29;19924;-79
2021/01/23 13:52:49;;;;;;;;;;;3.70;99.90;;;;;;4902880;29;19923;-80
2021/01/23 13:55:33;;;;;;;;;;;3.80;99.90;;;;;;4903133;29;19923;-81
2021/01/23 13:58:29;;;;;;;;;;;;;;;;;;;;;
2021/01/23 14:04:28;;;;;;;;;;;4.00;99.90;;;;;;4903974;29;20294;-79
2021/01/23 14:07:40;;;;;;;;;;;4.00;99.90;;;;;;4908246;29;19924;-80
2021/01/23 14:10:34;;;;;;;;;;;3.90;99.90;;;;;;4901496;29;20264;-80
2021/01/23 14:13:10;;;;;;;;;;;3.90;99.90;;;;;;4887306;29;19934;-79
2021/01/23 14:15:39;;;;;;;;;;;4.00;99.90;;;;;;4887811;29;19923;-78
2021/01/23 14:21:19;;;;;;;;;;;4.20;99.90;;;;;;4894250;29;19923;-80
2021/01/23 14:24:12;;;;;;;;;;;4.20;99.90;;;;;;4903002;29;19923;-79
2021/01/23 14:26:58;;;;;;;;;;;4.30;99.90;;;;;;4919646;29;19923;-81
2021/01/23 14:29:28;;;;;;;;;;;4.30;99.90;;;;;;4889386;29;19927;-79
2021/01/23 14:32:20;;;;;;;;;;;4.20;99.90;;;;;;4893559;29;19930;-79
2021/01/23 14:35:00;;;;;;;;;;;4.30;99.90;;;;;;4909637;29;19927;-80
2021/01/23 14:37:38;;;;;;;;;;;;;;;;;;;;;
2021/01/23 14:40:28;;;;;;;;;;;4.20;99.90;;;;;;4909802;29;19927;-80
2021/01/23 14:48:34;;;;;;;;;;;4.00;99.90;;;;;;4910484;29;19923;-80
2021/01/23 14:51:20;;;;;;;;;;;4.00;99.90;;;;;;4922697;29;19923;-79
2021/01/23 14:53:50;;;;;;;;;;;4.00;99.90;;;;;;4902348;29;19934;-79
2021/01/23 14:56:21;;;;;;;;;;;4.00;99.90;;;;;;4888301;29;19923;-80
2021/01/23 14:58:52;;;;;;;;;;;4.00;99.90;;;;;;4887993;29;19946;-80
2021/01/23 15:01:22;;;;;;;;;;;3.90;99.90;;;;;;4887456;29;19950;-81
2021/01/23 15:03:53;;;;;;;;;;;3.90;99.90;;;;;;4887887;29;19924;-80
2021/01/23 15:06:26;;;;;;;;;;;3.90;99.90;;;;;;4903939;29;19923;-79
2021/01/23 15:08:53;;;;;;;;;;;3.90;99.90;;;;;;4903281;29;19924;-79
2021/01/23 15:11:25;;;;;;;;;;;3.80;99.90;;;;;;4888934;29;19923;-80
2021/01/23 15:13:55;;;;;;;;;;;3.80;99.90;;;;;;4888110;29;19934;-79
2021/01/23 15:17:13;;;;;;;;;;;3.70;99.90;;;;;;4904990;29;19932;-79
2021/01/23 15:19:52;;;;;;;;;;;3.70;99.90;;;;;;4891064;29;19923;-79
2021/01/23 15:25:33;;;;;;;;;;;3.80;99.90;;;;;;4886007;29;19923;-80
2021/01/23 15:28:08;;;;;;;;;;;3.70;99.90;;;;;;4894462;29;19923;-78
2021/01/23 15:36:26;;;;;;;;;;;3.70;99.90;;;;;;4906507;29;19919;-80
2021/01/23 15:39:07;;;;;;;;;;;3.70;99.90;;;;;;4891505;29;19946;-80
2021/01/23 15:42:01;;;;;;;;;;;3.70;99.90;;;;;;4906293;29;19930;-79